sensor_id;sensor_type;location;lat;lon;timestamp;P1;durP1;ratioP1;P2;durP2;ratioP2
58372;SDS011;44177;43.356;27.672;2023-07-20T00:02:15;8.30;;;4.97;;
58372;SDS011;44177;43.356;27.672;2023-07-20T00:04:40;3.95;;;2.97;;
58372;SDS011;44177;43.356;27.672;2023-07-20T00:07:06;10.18;;;4.47;;
58372;SDS011;44177;43.356;27.672;2023-07-20T00:09:31;28.17;;;9.25;;
58372;SDS011;44177;43.356;27.672;2023-07-20T00:11:57;15.93;;;7.13;;
58372;SDS011;44177;43.356;27.672;2023-07-20T00:14:25;7.15;;;4.07;;
58372;SDS011;44177;43.356;27.672;2023-07-20T00:16:51;21.50;;;7.75;;
58372;SDS011;44177;43.356;27.672;2023-07-20T00:19:26;33.30;;;11.23;;
58372;SDS011;44177;43.356;27.672;2023-07-20T00:21:52;6.47;;;3.80;;
58372;SDS011;44177;43.356;27.672;2023-07-20T00:24:19;4.65;;;2.60;;
58372;SDS011;44177;43.356;27.672;2023-07-20T00:26:45;6.40;;;3.53;;
58372;SDS011;44177;43.356;27.672;2023-07-20T00:29:11;11.35;;;4.90;;
58372;SDS011;44177;43.356;27.672;2023-07-20T00:31:36;9.63;;;3.30;;
58372;SDS011;44177;43.356;27.672;2023-07-20T00:34:05;6.15;;;3.40;;
58372;SDS011;44177;43.356;27.672;2023-07-20T00:36:31;9.38;;;3.72;;
58372;SDS011;44177;43.356;27.672;2023-07-20T00:38:58;10.00;;;4.75;;
58372;SDS011;44177;43.356;27.672;2023-07-20T00:41:23;3.45;;;2.80;;
58372;SDS011;44177;43.356;27.672;2023-07-20T00:43:49;6.55;;;3.50;;
58372;SDS011;44177;43.356;27.672;2023-07-20T00:46:15;5.15;;;3.70;;
58372;SDS011;44177;43.356;27.672;2023-07-20T00:48:41;6.25;;;3.08;;
58372;SDS011;44177;43.356;27.672;2023-07-20T00:51:07;6.50;;;4.25;;
58372;SDS011;44177;43.356;27.672;2023-07-20T00:53:33;5.90;;;3.35;;
58372;SDS011;44177;43.356;27.672;2023-07-20T00:55:59;6.13;;;3.05;;
58372;SDS011;44177;43.356;27.672;2023-07-20T00:58:25;7.22;;;3.70;;
58372;SDS011;44177;43.356;27.672;2023-07-20T01:00:50;3.20;;;2.30;;
58372;SDS011;44177;43.356;27.672;2023-07-20T01:03:16;3.70;;;2.95;;
58372;SDS011;44177;43.356;27.672;2023-07-20T01:05:46;3.38;;;2.47;;
58372;SDS011;44177;43.356;27.672;2023-07-20T01:08:33;12.70;;;5.20;;
58372;SDS011;44177;43.356;27.672;2023-07-20T01:11:28;3.40;;;2.53;;
58372;SDS011;44177;43.356;27.672;2023-07-20T01:13:56;3.88;;;2.75;;
58372;SDS011;44177;43.356;27.672;2023-07-20T01:16:23;3.15;;;2.50;;
58372;SDS011;44177;43.356;27.672;2023-07-20T01:18:49;5.20;;;3.17;;
58372;SDS011;44177;43.356;27.672;2023-07-20T01:21:18;5.15;;;3.20;;
58372;SDS011;44177;43.356;27.672;2023-07-20T01:32:26;3.50;;;3.00;;
58372;SDS011;44177;43.356;27.672;2023-07-20T01:34:54;8.95;;;3.95;;
58372;SDS011;44177;43.356;27.672;2023-07-20T01:37:22;10.57;;;4.85;;
58372;SDS011;44177;43.356;27.672;2023-07-20T01:39:53;3.80;;;3.13;;
58372;SDS011;44177;43.356;27.672;2023-07-20T01:42:22;4.97;;;3.40;;
58372;SDS011;44177;43.356;27.672;2023-07-20T01:44:52;5.38;;;2.90;;
58372;SDS011;44177;43.356;27.672;2023-07-20T01:47:18;5.75;;;3.20;;
58372;SDS011;44177;43.356;27.672;2023-07-20T01:49:44;5.75;;;3.80;;
58372;SDS011;44177;43.356;27.672;2023-07-20T01:52:10;4.03;;;3.15;;
58372;SDS011;44177;43.356;27.672;2023-07-20T01:54:36;5.22;;;3.30;;
58372;SDS011;44177;43.356;27.672;2023-07-20T01:57:02;4.63;;;3.50;;
58372;SDS011;44177;43.356;27.672;2023-07-20T01:59:27;9.13;;;4.07;;
58372;SDS011;44177;43.356;27.672;2023-07-20T02:01:53;7.63;;;3.63;;
58372;SDS011;44177;43.356;27.672;2023-07-20T02:04:19;4.60;;;3.67;;
58372;SDS011;44177;43.356;27.672;2023-07-20T02:06:44;5.50;;;3.75;;
58372;SDS011;44177;43.356;27.672;2023-07-20T02:09:10;4.95;;;3.40;;
58372;SDS011;44177;43.356;27.672;2023-07-20T02:11:35;12.13;;;5.07;;
58372;SDS011;44177;43.356;27.672;2023-07-20T02:14:01;6.45;;;4.05;;
58372;SDS011;44177;43.356;27.672;2023-07-20T02:16:26;5.05;;;3.65;;
58372;SDS011;44177;43.356;27.672;2023-07-20T02:18:52;4.07;;;3.25;;
58372;SDS011;44177;43.356;27.672;2023-07-20T02:21:18;7.65;;;3.70;;
58372;SDS011;44177;43.356;27.672;2023-07-20T02:23:43;7.60;;;3.88;;
58372;SDS011;44177;43.356;27.672;2023-07-20T02:26:09;15.32;;;6.00;;
58372;SDS011;44177;43.356;27.672;2023-07-20T02:28:34;5.28;;;3.55;;
58372;SDS011;44177;43.356;27.672;2023-07-20T02:31:00;10.98;;;4.80;;
58372;SDS011;44177;43.356;27.672;2023-07-20T02:33:25;8.32;;;4.07;;
58372;SDS011;44177;43.356;27.672;2023-07-20T02:35:51;5.80;;;3.33;;
58372;SDS011;44177;43.356;27.672;2023-07-20T02:38:17;6.80;;;3.28;;
58372;SDS011;44177;43.356;27.672;2023-07-20T02:40:43;5.40;;;3.47;;
58372;SDS011;44177;43.356;27.672;2023-07-20T02:43:08;6.82;;;3.90;;
58372;SDS011;44177;43.356;27.672;2023-07-20T02:45:34;8.48;;;4.32;;
58372;SDS011;44177;43.356;27.672;2023-07-20T02:48:00;7.28;;;3.90;;
58372;SDS011;44177;43.356;27.672;2023-07-20T02:50:26;7.97;;;4.47;;
58372;SDS011;44177;43.356;27.672;2023-07-20T02:52:51;5.57;;;3.83;;
58372;SDS011;44177;43.356;27.672;2023-07-20T02:55:17;7.53;;;3.67;;
58372;SDS011;44177;43.356;27.672;2023-07-20T02:57:42;5.28;;;3.22;;
58372;SDS011;44177;43.356;27.672;2023-07-20T03:00:08;7.57;;;3.90;;
58372;SDS011;44177;43.356;27.672;2023-07-20T03:02:34;5.22;;;3.50;;
58372;SDS011;44177;43.356;27.672;2023-07-20T03:05:00;7.60;;;3.92;;
58372;SDS011;44177;43.356;27.672;2023-07-20T03:07:27;4.53;;;3.60;;
58372;SDS011;44177;43.356;27.672;2023-07-20T03:09:53;5.90;;;3.50;;
58372;SDS011;44177;43.356;27.672;2023-07-20T03:12:20;5.90;;;3.00;;
58372;SDS011;44177;43.356;27.672;2023-07-20T03:14:46;3.50;;;3.15;;
58372;SDS011;44177;43.356;27.672;2023-07-20T03:17:12;14.05;;;5.20;;
58372;SDS011;44177;43.356;27.672;2023-07-20T03:19:38;4.50;;;3.10;;
58372;SDS011;44177;43.356;27.672;2023-07-20T03:22:03;4.47;;;3.15;;
58372;SDS011;44177;43.356;27.672;2023-07-20T03:24:29;8.45;;;4.38;;
58372;SDS011;44177;43.356;27.672;2023-07-20T03:26:54;12.05;;;4.05;;
58372;SDS011;44177;43.356;27.672;2023-07-20T03:29:20;6.60;;;3.55;;
58372;SDS011;44177;43.356;27.672;2023-07-20T03:31:45;14.55;;;4.90;;
58372;SDS011;44177;43.356;27.672;2023-07-20T03:34:11;5.35;;;2.95;;
58372;SDS011;44177;43.356;27.672;2023-07-20T03:36:36;5.63;;;2.75;;
58372;SDS011;44177;43.356;27.672;2023-07-20T03:39:02;4.00;;;2.88;;
58372;SDS011;44177;43.356;27.672;2023-07-20T03:41:28;4.32;;;2.97;;
58372;SDS011;44177;43.356;27.672;2023-07-20T03:43:54;5.65;;;2.92;;
58372;SDS011;44177;43.356;27.672;2023-07-20T03:46:19;5.20;;;2.97;;
58372;SDS011;44177;43.356;27.672;2023-07-20T03:48:45;3.85;;;3.13;;
58372;SDS011;44177;43.356;27.672;2023-07-20T03:51:11;4.63;;;3.17;;
58372;SDS011;44177;43.356;27.672;2023-07-20T03:53:36;8.07;;;3.45;;
58372;SDS011;44177;43.356;27.672;2023-07-20T03:56:02;8.90;;;3.92;;
58372;SDS011;44177;43.356;27.672;2023-07-20T03:58:28;9.82;;;4.10;;
58372;SDS011;44177;43.356;27.672;2023-07-20T04:00:55;10.93;;;3.00;;
58372;SDS011;44177;43.356;27.672;2023-07-20T04:03:20;3.00;;;2.67;;
58372;SDS011;44177;43.356;27.672;2023-07-20T04:05:48;4.97;;;2.88;;
58372;SDS011;44177;43.356;27.672;2023-07-20T04:08:13;7.20;;;3.00;;
58372;SDS011;44177;43.356;27.672;2023-07-20T04:10:39;4.07;;;2.50;;
58372;SDS011;44177;43.356;27.672;2023-07-20T04:13:04;3.53;;;2.50;;
58372;SDS011;44177;43.356;27.672;2023-07-20T04:15:32;6.85;;;2.85;;
58372;SDS011;44177;43.356;27.672;2023-07-20T04:17:57;5.75;;;2.60;;
58372;SDS011;44177;43.356;27.672;2023-07-20T04:20:23;8.13;;;2.92;;
58372;SDS011;44177;43.356;27.672;2023-07-20T04:22:49;8.13;;;2.70;;
58372;SDS011;44177;43.356;27.672;2023-07-20T04:25:15;8.63;;;3.10;;
58372;SDS011;44177;43.356;27.672;2023-07-20T04:27:40;7.40;;;3.20;;
58372;SDS011;44177;43.356;27.672;2023-07-20T04:30:07;4.30;;;2.33;;
58372;SDS011;44177;43.356;27.672;2023-07-20T04:32:33;4.82;;;2.65;;
58372;SDS011;44177;43.356;27.672;2023-07-20T04:34:59;8.35;;;2.78;;
58372;SDS011;44177;43.356;27.672;2023-07-20T04:37:24;6.55;;;2.53;;
58372;SDS011;44177;43.356;27.672;2023-07-20T04:39:50;5.65;;;3.03;;
58372;SDS011;44177;43.356;27.672;2023-07-20T04:42:15;3.60;;;2.55;;
58372;SDS011;44177;43.356;27.672;2023-07-20T04:44:41;6.88;;;2.33;;
58372;SDS011;44177;43.356;27.672;2023-07-20T04:47:07;5.00;;;2.50;;
58372;SDS011;44177;43.356;27.672;2023-07-20T04:49:33;10.00;;;3.65;;
58372;SDS011;44177;43.356;27.672;2023-07-20T04:51:59;4.43;;;2.53;;
58372;SDS011;44177;43.356;27.672;2023-07-20T04:54:25;6.50;;;2.78;;
58372;SDS011;44177;43.356;27.672;2023-07-20T04:56:52;5.43;;;2.55;;
58372;SDS011;44177;43.356;27.672;2023-07-20T04:59:18;4.00;;;2.63;;
58372;SDS011;44177;43.356;27.672;2023-07-20T05:01:44;5.85;;;2.67;;
58372;SDS011;44177;43.356;27.672;2023-07-20T05:04:10;8.43;;;2.72;;
58372;SDS011;44177;43.356;27.672;2023-07-20T05:06:35;6.80;;;2.92;;
58372;SDS011;44177;43.356;27.672;2023-07-20T05:09:01;6.80;;;2.83;;
58372;SDS011;44177;43.356;27.672;2023-07-20T05:11:26;3.17;;;2.50;;
58372;SDS011;44177;43.356;27.672;2023-07-20T05:13:52;3.95;;;2.72;;
58372;SDS011;44177;43.356;27.672;2023-07-20T05:16:17;7.47;;;2.97;;
58372;SDS011;44177;43.356;27.672;2023-07-20T05:18:43;4.07;;;3.00;;
58372;SDS011;44177;43.356;27.672;2023-07-20T05:21:08;9.55;;;2.72;;
58372;SDS011;44177;43.356;27.672;2023-07-20T05:23:34;4.05;;;2.78;;
58372;SDS011;44177;43.356;27.672;2023-07-20T05:26:00;6.72;;;3.35;;
58372;SDS011;44177;43.356;27.672;2023-07-20T05:28:25;7.20;;;2.78;;
58372;SDS011;44177;43.356;27.672;2023-07-20T05:30:52;3.45;;;2.60;;
58372;SDS011;44177;43.356;27.672;2023-07-20T05:33:18;3.40;;;2.55;;
58372;SDS011;44177;43.356;27.672;2023-07-20T05:35:44;7.53;;;2.20;;
58372;SDS011;44177;43.356;27.672;2023-07-20T05:38:10;5.63;;;2.65;;
58372;SDS011;44177;43.356;27.672;2023-07-20T05:40:39;6.65;;;2.65;;
58372;SDS011;44177;43.356;27.672;2023-07-20T05:43:06;3.35;;;2.60;;
58372;SDS011;44177;43.356;27.672;2023-07-20T05:45:31;4.15;;;2.58;;
58372;SDS011;44177;43.356;27.672;2023-07-20T05:47:57;4.95;;;2.65;;
58372;SDS011;44177;43.356;27.672;2023-07-20T05:50:22;3.60;;;1.77;;
58372;SDS011;44177;43.356;27.672;2023-07-20T05:52:48;3.47;;;1.95;;
58372;SDS011;44177;43.356;27.672;2023-07-20T05:55:14;5.18;;;2.25;;
58372;SDS011;44177;43.356;27.672;2023-07-20T05:57:39;3.70;;;1.80;;
58372;SDS011;44177;43.356;27.672;2023-07-20T06:00:07;5.80;;;1.60;;
58372;SDS011;44177;43.356;27.672;2023-07-20T06:02:34;4.95;;;1.40;;
58372;SDS011;44177;43.356;27.672;2023-07-20T06:04:59;3.30;;;1.35;;
58372;SDS011;44177;43.356;27.672;2023-07-20T06:07:25;2.30;;;1.45;;
58372;SDS011;44177;43.356;27.672;2023-07-20T06:09:50;4.47;;;1.65;;
58372;SDS011;44177;43.356;27.672;2023-07-20T06:12:16;4.03;;;1.63;;
58372;SDS011;44177;43.356;27.672;2023-07-20T06:14:41;0.95;;;0.80;;
58372;SDS011;44177;43.356;27.672;2023-07-20T06:17:07;2.03;;;1.08;;
58372;SDS011;44177;43.356;27.672;2023-07-20T06:19:33;3.60;;;1.85;;
58372;SDS011;44177;43.356;27.672;2023-07-20T06:21:58;1.30;;;1.20;;
58372;SDS011;44177;43.356;27.672;2023-07-20T06:24:24;1.30;;;1.20;;
58372;SDS011;44177;43.356;27.672;2023-07-20T06:26:49;3.28;;;1.42;;
58372;SDS011;44177;43.356;27.672;2023-07-20T06:29:15;3.60;;;1.33;;
58372;SDS011;44177;43.356;27.672;2023-07-20T06:31:40;2.72;;;1.27;;
58372;SDS011;44177;43.356;27.672;2023-07-20T06:34:06;3.05;;;1.30;;
58372;SDS011;44177;43.356;27.672;2023-07-20T06:36:31;1.58;;;1.00;;
58372;SDS011;44177;43.356;27.672;2023-07-20T06:38:57;3.17;;;1.63;;
58372;SDS011;44177;43.356;27.672;2023-07-20T06:41:23;4.22;;;1.40;;
58372;SDS011;44177;43.356;27.672;2023-07-20T06:43:48;3.47;;;1.50;;
58372;SDS011;44177;43.356;27.672;2023-07-20T06:46:15;2.05;;;1.40;;
58372;SDS011;44177;43.356;27.672;2023-07-20T06:48:40;2.28;;;1.73;;
58372;SDS011;44177;43.356;27.672;2023-07-20T06:51:06;4.78;;;1.80;;
58372;SDS011;44177;43.356;27.672;2023-07-20T06:53:32;2.25;;;1.45;;
58372;SDS011;44177;43.356;27.672;2023-07-20T06:55:57;5.10;;;1.67;;
58372;SDS011;44177;43.356;27.672;2023-07-20T06:58:23;2.75;;;1.52;;
58372;SDS011;44177;43.356;27.672;2023-07-20T07:00:49;3.97;;;1.25;;
58372;SDS011;44177;43.356;27.672;2023-07-20T07:03:15;1.33;;;1.20;;
58372;SDS011;44177;43.356;27.672;2023-07-20T07:05:40;7.97;;;1.63;;
58372;SDS011;44177;43.356;27.672;2023-07-20T07:08:06;2.78;;;1.33;;
58372;SDS011;44177;43.356;27.672;2023-07-20T07:10:32;1.40;;;1.17;;
58372;SDS011;44177;43.356;27.672;2023-07-20T07:13:00;2.80;;;0.98;;
58372;SDS011;44177;43.356;27.672;2023-07-20T07:15:25;3.33;;;1.10;;
58372;SDS011;44177;43.356;27.672;2023-07-20T07:17:51;2.33;;;1.23;;
58372;SDS011;44177;43.356;27.672;2023-07-20T07:20:17;1.13;;;0.95;;
58372;SDS011;44177;43.356;27.672;2023-07-20T07:22:42;2.67;;;1.10;;
58372;SDS011;44177;43.356;27.672;2023-07-20T07:25:09;1.33;;;1.20;;
58372;SDS011;44177;43.356;27.672;2023-07-20T07:27:35;2.03;;;1.00;;
58372;SDS011;44177;43.356;27.672;2023-07-20T07:30:01;1.85;;;0.98;;
58372;SDS011;44177;43.356;27.672;2023-07-20T07:32:27;4.47;;;1.00;;
58372;SDS011;44177;43.356;27.672;2023-07-20T07:34:53;2.03;;;1.13;;
58372;SDS011;44177;43.356;27.672;2023-07-20T07:37:18;2.40;;;1.23;;
58372;SDS011;44177;43.356;27.672;2023-07-20T07:39:45;4.43;;;1.17;;
58372;SDS011;44177;43.356;27.672;2023-07-20T07:42:11;1.58;;;1.17;;
58372;SDS011;44177;43.356;27.672;2023-07-20T07:44:37;1.30;;;1.05;;
58372;SDS011;44177;43.356;27.672;2023-07-20T07:47:03;1.90;;;0.82;;
58372;SDS011;44177;43.356;27.672;2023-07-20T07:49:29;1.50;;;0.90;;
58372;SDS011;44177;43.356;27.672;2023-07-20T07:51:54;2.03;;;0.98;;
58372;SDS011;44177;43.356;27.672;2023-07-20T07:54:20;1.92;;;0.80;;
58372;SDS011;44177;43.356;27.672;2023-07-20T07:56:45;1.05;;;0.85;;
58372;SDS011;44177;43.356;27.672;2023-07-20T07:59:11;2.85;;;1.05;;
58372;SDS011;44177;43.356;27.672;2023-07-20T08:01:36;4.45;;;1.35;;
58372;SDS011;44177;43.356;27.672;2023-07-20T08:04:02;2.15;;;1.15;;
58372;SDS011;44177;43.356;27.672;2023-07-20T08:06:28;1.25;;;0.90;;
58372;SDS011;44177;43.356;27.672;2023-07-20T08:08:54;5.32;;;1.30;;
58372;SDS011;44177;43.356;27.672;2023-07-20T08:11:19;2.25;;;1.10;;
58372;SDS011;44177;43.356;27.672;2023-07-20T08:13:45;1.45;;;0.95;;
58372;SDS011;44177;43.356;27.672;2023-07-20T08:16:11;2.28;;;1.23;;
58372;SDS011;44177;43.356;27.672;2023-07-20T08:18:36;2.25;;;1.10;;
58372;SDS011;44177;43.356;27.672;2023-07-20T08:21:02;1.50;;;0.90;;
58372;SDS011;44177;43.356;27.672;2023-07-20T08:23:28;2.53;;;1.17;;
58372;SDS011;44177;43.356;27.672;2023-07-20T08:25:54;2.00;;;1.00;;
58372;SDS011;44177;43.356;27.672;2023-07-20T08:28:19;2.03;;;1.27;;
58372;SDS011;44177;43.356;27.672;2023-07-20T08:30:46;1.65;;;0.80;;
58372;SDS011;44177;43.356;27.672;2023-07-20T08:33:13;2.95;;;1.05;;
58372;SDS011;44177;43.356;27.672;2023-07-20T08:35:40;1.40;;;1.20;;
58372;SDS011;44177;43.356;27.672;2023-07-20T08:38:07;1.27;;;0.98;;
58372;SDS011;44177;43.356;27.672;2023-07-20T08:40:33;3.40;;;1.58;;
58372;SDS011;44177;43.356;27.672;2023-07-20T08:43:04;1.45;;;1.17;;
58372;SDS011;44177;43.356;27.672;2023-07-20T08:45:29;1.52;;;1.02;;
58372;SDS011;44177;43.356;27.672;2023-07-20T08:48:00;3.65;;;1.42;;
58372;SDS011;44177;43.356;27.672;2023-07-20T08:50:27;2.38;;;1.13;;
58372;SDS011;44177;43.356;27.672;2023-07-20T08:52:55;1.60;;;1.08;;
58372;SDS011;44177;43.356;27.672;2023-07-20T08:55:23;2.40;;;0.80;;
58372;SDS011;44177;43.356;27.672;2023-07-20T08:57:49;1.10;;;1.00;;
58372;SDS011;44177;43.356;27.672;2023-07-20T09:00:19;1.98;;;0.90;;
58372;SDS011;44177;43.356;27.672;2023-07-20T09:02:45;1.73;;;0.73;;
58372;SDS011;44177;43.356;27.672;2023-07-20T09:05:11;1.58;;;0.80;;
58372;SDS011;44177;43.356;27.672;2023-07-20T09:07:39;1.52;;;1.00;;
58372;SDS011;44177;43.356;27.672;2023-07-20T09:10:06;2.05;;;0.82;;
58372;SDS011;44177;43.356;27.672;2023-07-20T09:12:39;1.13;;;0.90;;
58372;SDS011;44177;43.356;27.672;2023-07-20T09:17:32;1.05;;;0.95;;
58372;SDS011;44177;43.356;27.672;2023-07-20T09:23:19;2.83;;;0.70;;
58372;SDS011;44177;43.356;27.672;2023-07-20T09:25:46;1.60;;;1.00;;
58372;SDS011;44177;43.356;27.672;2023-07-20T09:28:15;1.30;;;1.20;;
58372;SDS011;44177;43.356;27.672;2023-07-20T09:30:41;1.70;;;1.17;;
58372;SDS011;44177;43.356;27.672;2023-07-20T09:33:07;1.63;;;0.85;;
58372;SDS011;44177;43.356;27.672;2023-07-20T09:35:44;2.20;;;1.15;;
58372;SDS011;44177;43.356;27.672;2023-07-20T09:38:10;2.53;;;1.05;;
58372;SDS011;44177;43.356;27.672;2023-07-20T09:40:38;1.77;;;1.23;;
58372;SDS011;44177;43.356;27.672;2023-07-20T09:43:07;1.50;;;1.08;;
58372;SDS011;44177;43.356;27.672;2023-07-20T09:45:34;1.83;;;1.20;;
58372;SDS011;44177;43.356;27.672;2023-07-20T09:48:04;1.90;;;1.10;;
58372;SDS011;44177;43.356;27.672;2023-07-20T09:50:31;2.85;;;1.50;;
58372;SDS011;44177;43.356;27.672;2023-07-20T09:53:07;1.70;;;1.25;;
58372;SDS011;44177;43.356;27.672;2023-07-20T09:55:38;2.58;;;1.60;;
58372;SDS011;44177;43.356;27.672;2023-07-20T09:58:05;3.67;;;1.40;;
58372;SDS011;44177;43.356;27.672;2023-07-20T10:00:34;1.73;;;1.27;;
58372;SDS011;44177;43.356;27.672;2023-07-20T10:03:03;1.15;;;1.00;;
58372;SDS011;44177;43.356;27.672;2023-07-20T10:05:32;1.83;;;1.05;;
58372;SDS011;44177;43.356;27.672;2023-07-20T10:08:00;5.78;;;1.30;;
58372;SDS011;44177;43.356;27.672;2023-07-20T10:10:28;5.40;;;1.83;;
58372;SDS011;44177;43.356;27.672;2023-07-20T10:12:55;1.55;;;1.23;;
58372;SDS011;44177;43.356;27.672;2023-07-20T10:15:28;2.05;;;1.40;;
58372;SDS011;44177;43.356;27.672;2023-07-20T10:18:12;4.25;;;1.60;;
58372;SDS011;44177;43.356;27.672;2023-07-20T10:20:42;1.88;;;1.30;;
58372;SDS011;44177;43.356;27.672;2023-07-20T10:23:09;1.52;;;1.20;;
58372;SDS011;44177;43.356;27.672;2023-07-20T10:25:36;1.80;;;1.20;;
58372;SDS011;44177;43.356;27.672;2023-07-20T10:28:06;1.42;;;1.27;;
58372;SDS011;44177;43.356;27.672;2023-07-20T10:30:35;1.58;;;1.20;;
58372;SDS011;44177;43.356;27.672;2023-07-20T10:33:05;1.95;;;1.63;;
58372;SDS011;44177;43.356;27.672;2023-07-20T10:35:31;2.40;;;1.20;;
58372;SDS011;44177;43.356;27.672;2023-07-20T10:38:15;1.95;;;1.10;;
58372;SDS011;44177;43.356;27.672;2023-07-20T10:40:41;2.03;;;1.10;;
58372;SDS011;44177;43.356;27.672;2023-07-20T10:43:07;1.20;;;1.10;;
58372;SDS011;44177;43.356;27.672;2023-07-20T10:45:34;1.23;;;1.10;;
58372;SDS011;44177;43.356;27.672;2023-07-20T10:50:41;2.47;;;1.33;;
58372;SDS011;44177;43.356;27.672;2023-07-20T10:53:13;1.83;;;1.50;;
58372;SDS011;44177;43.356;27.672;2023-07-20T10:55:40;1.30;;;1.20;;
58372;SDS011;44177;43.356;27.672;2023-07-20T10:58:07;2.67;;;1.55;;
58372;SDS011;44177;43.356;27.672;2023-07-20T11:00:35;1.45;;;1.10;;
58372;SDS011;44177;43.356;27.672;2023-07-20T11:03:01;1.40;;;1.30;;
58372;SDS011;44177;43.356;27.672;2023-07-20T11:05:34;1.48;;;1.30;;
58372;SDS011;44177;43.356;27.672;2023-07-20T11:08:04;2.17;;;1.45;;
58372;SDS011;44177;43.356;27.672;2023-07-20T11:10:31;1.85;;;1.40;;
58372;SDS011;44177;43.356;27.672;2023-07-20T11:16:23;1.77;;;1.42;;
58372;SDS011;44177;43.356;27.672;2023-07-20T11:18:30;2.20;;;1.42;;
58372;SDS011;44177;43.356;27.672;2023-07-20T11:20:59;1.60;;;1.50;;
58372;SDS011;44177;43.356;27.672;2023-07-20T11:23:25;4.60;;;1.42;;
58372;SDS011;44177;43.356;27.672;2023-07-20T11:25:51;1.55;;;1.27;;
58372;SDS011;44177;43.356;27.672;2023-07-20T11:28:16;3.10;;;1.48;;
58372;SDS011;44177;43.356;27.672;2023-07-20T11:30:42;4.00;;;1.48;;
58372;SDS011;44177;43.356;27.672;2023-07-20T11:33:08;2.80;;;1.33;;
58372;SDS011;44177;43.356;27.672;2023-07-20T11:35:43;1.63;;;1.17;;
58372;SDS011;44177;43.356;27.672;2023-07-20T11:38:09;1.15;;;1.02;;
58372;SDS011;44177;43.356;27.672;2023-07-20T11:40:35;1.60;;;1.30;;
58372;SDS011;44177;43.356;27.672;2023-07-20T11:43:00;2.25;;;1.63;;
58372;SDS011;44177;43.356;27.672;2023-07-20T11:45:27;3.20;;;1.17;;
58372;SDS011;44177;43.356;27.672;2023-07-20T11:47:58;1.63;;;1.27;;
58372;SDS011;44177;43.356;27.672;2023-07-20T11:50:24;2.13;;;1.83;;
58372;SDS011;44177;43.356;27.672;2023-07-20T11:52:50;1.55;;;1.30;;
58372;SDS011;44177;43.356;27.672;2023-07-20T11:55:15;3.08;;;1.55;;
58372;SDS011;44177;43.356;27.672;2023-07-20T11:57:41;1.63;;;1.42;;
58372;SDS011;44177;43.356;27.672;2023-07-20T12:00:26;2.50;;;1.48;;
58372;SDS011;44177;43.356;27.672;2023-07-20T12:02:53;2.72;;;1.33;;
58372;SDS011;44177;43.356;27.672;2023-07-20T12:05:19;1.42;;;1.30;;
58372;SDS011;44177;43.356;27.672;2023-07-20T12:07:44;1.52;;;1.20;;
58372;SDS011;44177;43.356;27.672;2023-07-20T12:10:11;1.73;;;1.33;;
58372;SDS011;44177;43.356;27.672;2023-07-20T12:12:37;1.77;;;1.00;;
58372;SDS011;44177;43.356;27.672;2023-07-20T12:15:15;5.47;;;1.50;;
58372;SDS011;44177;43.356;27.672;2023-07-20T12:17:42;1.65;;;1.38;;
58372;SDS011;44177;43.356;27.672;2023-07-20T12:20:11;2.15;;;1.45;;
58372;SDS011;44177;43.356;27.672;2023-07-20T12:22:40;2.08;;;1.50;;
58372;SDS011;44177;43.356;27.672;2023-07-20T12:25:08;1.63;;;1.30;;
58372;SDS011;44177;43.356;27.672;2023-07-20T12:27:37;1.58;;;1.25;;
58372;SDS011;44177;43.356;27.672;2023-07-20T12:30:04;1.98;;;1.30;;
58372;SDS011;44177;43.356;27.672;2023-07-20T12:32:33;2.13;;;1.77;;
58372;SDS011;44177;43.356;27.672;2023-07-20T12:34:58;1.65;;;1.30;;
58372;SDS011;44177;43.356;27.672;2023-07-20T12:37:25;1.30;;;1.20;;
58372;SDS011;44177;43.356;27.672;2023-07-20T12:39:52;1.50;;;1.40;;
58372;SDS011;44177;43.356;27.672;2023-07-20T12:42:18;1.95;;;1.45;;
58372;SDS011;44177;43.356;27.672;2023-07-20T12:44:43;2.47;;;2.05;;
58372;SDS011;44177;43.356;27.672;2023-07-20T12:47:09;2.00;;;1.30;;
58372;SDS011;44177;43.356;27.672;2023-07-20T12:49:35;1.25;;;1.23;;
58372;SDS011;44177;43.356;27.672;2023-07-20T12:52:00;2.08;;;1.50;;
58372;SDS011;44177;43.356;27.672;2023-07-20T12:54:26;1.80;;;1.70;;
58372;SDS011;44177;43.356;27.672;2023-07-20T12:56:51;2.40;;;1.40;;
58372;SDS011;44177;43.356;27.672;2023-07-20T12:59:17;1.58;;;1.48;;
58372;SDS011;44177;43.356;27.672;2023-07-20T13:01:43;1.30;;;1.20;;
58372;SDS011;44177;43.356;27.672;2023-07-20T13:04:09;1.45;;;1.27;;
58372;SDS011;44177;43.356;27.672;2023-07-20T13:06:35;1.63;;;1.50;;
58372;SDS011;44177;43.356;27.672;2023-07-20T13:09:01;3.35;;;1.70;;
58372;SDS011;44177;43.356;27.672;2023-07-20T13:11:26;3.92;;;1.77;;
58372;SDS011;44177;43.356;27.672;2023-07-20T13:13:52;2.40;;;1.65;;
58372;SDS011;44177;43.356;27.672;2023-07-20T13:16:18;1.85;;;1.52;;
58372;SDS011;44177;43.356;27.672;2023-07-20T13:18:43;2.30;;;1.42;;
58372;SDS011;44177;43.356;27.672;2023-07-20T13:21:09;1.52;;;1.42;;
58372;SDS011;44177;43.356;27.672;2023-07-20T13:23:38;2.20;;;1.45;;
58372;SDS011;44177;43.356;27.672;2023-07-20T13:26:04;3.05;;;1.50;;
58372;SDS011;44177;43.356;27.672;2023-07-20T13:28:30;3.50;;;1.55;;
58372;SDS011;44177;43.356;27.672;2023-07-20T13:30:55;1.75;;;1.33;;
58372;SDS011;44177;43.356;27.672;2023-07-20T13:33:21;2.53;;;1.60;;
58372;SDS011;44177;43.356;27.672;2023-07-20T13:35:46;1.95;;;1.67;;
58372;SDS011;44177;43.356;27.672;2023-07-20T13:38:12;2.58;;;1.65;;
58372;SDS011;44177;43.356;27.672;2023-07-20T13:40:38;3.97;;;1.67;;
58372;SDS011;44177;43.356;27.672;2023-07-20T13:43:03;2.40;;;1.70;;
58372;SDS011;44177;43.356;27.672;2023-07-20T13:45:29;2.40;;;2.20;;
58372;SDS011;44177;43.356;27.672;2023-07-20T13:47:54;3.25;;;1.50;;
58372;SDS011;44177;43.356;27.672;2023-07-20T13:50:20;2.10;;;1.60;;
58372;SDS011;44177;43.356;27.672;2023-07-20T13:52:46;3.45;;;1.55;;
58372;SDS011;44177;43.356;27.672;2023-07-20T13:55:12;1.70;;;1.60;;
58372;SDS011;44177;43.356;27.672;2023-07-20T13:57:37;1.65;;;1.50;;
58372;SDS011;44177;43.356;27.672;2023-07-20T14:00:03;5.13;;;1.70;;
58372;SDS011;44177;43.356;27.672;2023-07-20T14:02:30;3.78;;;1.70;;
58372;SDS011;44177;43.356;27.672;2023-07-20T14:04:55;3.58;;;1.58;;
58372;SDS011;44177;43.356;27.672;2023-07-20T14:07:22;2.03;;;1.73;;
58372;SDS011;44177;43.356;27.672;2023-07-20T14:09:47;2.53;;;1.50;;
58372;SDS011;44177;43.356;27.672;2023-07-20T14:12:13;3.08;;;2.15;;
58372;SDS011;44177;43.356;27.672;2023-07-20T14:14:39;2.72;;;1.70;;
58372;SDS011;44177;43.356;27.672;2023-07-20T14:17:08;2.97;;;1.83;;
58372;SDS011;44177;43.356;27.672;2023-07-20T14:19:34;2.28;;;1.90;;
58372;SDS011;44177;43.356;27.672;2023-07-20T14:21:59;1.73;;;1.63;;
58372;SDS011;44177;43.356;27.672;2023-07-20T14:24:25;3.70;;;1.90;;
58372;SDS011;44177;43.356;27.672;2023-07-20T14:26:51;2.95;;;1.80;;
58372;SDS011;44177;43.356;27.672;2023-07-20T14:29:17;3.88;;;1.63;;
58372;SDS011;44177;43.356;27.672;2023-07-20T14:31:45;2.88;;;1.52;;
58372;SDS011;44177;43.356;27.672;2023-07-20T14:34:16;2.45;;;1.48;;
58372;SDS011;44177;43.356;27.672;2023-07-20T14:36:43;2.17;;;1.42;;
58372;SDS011;44177;43.356;27.672;2023-07-20T14:39:08;2.00;;;1.55;;
58372;SDS011;44177;43.356;27.672;2023-07-20T14:41:34;3.92;;;1.65;;
58372;SDS011;44177;43.356;27.672;2023-07-20T14:43:59;2.33;;;1.85;;
58372;SDS011;44177;43.356;27.672;2023-07-20T14:46:25;1.90;;;1.50;;
58372;SDS011;44177;43.356;27.672;2023-07-20T14:48:50;1.60;;;1.40;;
58372;SDS011;44177;43.356;27.672;2023-07-20T14:51:17;2.15;;;1.67;;